createdAt,value
2017-06-22T00:00:43.316Z,0
2017-06-22T00:01:55.853Z,0
2017-06-22T00:03:08.393Z,0
2017-06-22T00:04:20.938Z,0
2017-06-22T00:05:33.181Z,0
2017-06-22T00:06:45.669Z,0
2017-06-22T00:07:58.198Z,0
2017-06-22T00:09:10.394Z,0
2017-06-22T00:10:22.933Z,0
2017-06-22T00:11:35.464Z,0
2017-06-22T00:12:47.730Z,0
2017-06-22T00:14:00.253Z,0
2017-06-22T00:15:12.749Z,0
2017-06-22T00:16:24.975Z,0
2017-06-22T00:17:37.493Z,0
2017-06-22T00:18:50.037Z,0
2017-06-22T00:20:02.576Z,0
2017-06-22T00:21:14.795Z,0
2017-06-22T00:22:27.027Z,0
2017-06-22T00:23:38.946Z,0
2017-06-22T00:24:51.759Z,0
2017-06-22T00:26:03.691Z,0
2017-06-22T00:27:16.226Z,0
2017-06-22T00:28:28.783Z,0
2017-06-22T00:29:41.308Z,0
2017-06-22T00:30:53.546Z,0
2017-06-22T00:32:06.042Z,0
2017-06-22T00:33:18.563Z,0
2017-06-22T00:34:30.784Z,0
2017-06-22T00:35:43.300Z,0
2017-06-22T00:36:55.521Z,0
2017-06-22T00:38:08.063Z,0
2017-06-22T00:39:20.600Z,0
2017-06-22T00:40:33.143Z,0
2017-06-22T00:41:45.394Z,0
2017-06-22T00:42:57.638Z,0
2017-06-22T00:44:09.605Z,0
2017-06-22T00:45:21.851Z,0
2017-06-22T00:46:34.410Z,0
2017-06-22T00:47:46.619Z,0
2017-06-22T00:48:59.137Z,0
2017-06-22T00:50:11.680Z,0
2017-06-22T00:51:24.179Z,0
2017-06-22T00:52:36.714Z,0
2017-06-22T00:53:48.961Z,0
2017-06-22T00:55:00.866Z,0
2017-06-22T00:56:13.088Z,0
2017-06-22T00:57:25.627Z,0
2017-06-22T00:58:38.154Z,0
2017-06-22T00:59:50.719Z,0
2017-06-22T01:01:03.245Z,0
2017-06-22T01:02:15.767Z,0
2017-06-22T01:03:28.006Z,0
2017-06-22T01:04:40.232Z,0
2017-06-22T01:05:52.757Z,0
2017-06-22T01:07:05.294Z,0
2017-06-22T01:08:18.111Z,0
2017-06-22T01:09:30.037Z,0
2017-06-22T01:10:42.565Z,0
2017-06-22T01:11:55.136Z,0
2017-06-22T01:13:07.682Z,0
2017-06-22T01:14:20.224Z,0
2017-06-22T01:15:32.726Z,0
2017-06-22T01:16:44.936Z,0
2017-06-22T01:17:57.442Z,0
2017-06-22T01:19:10.236Z,0
2017-06-22T01:20:22.757Z,0
2017-06-22T01:21:35.292Z,0
2017-06-22T01:22:47.838Z,0
2017-06-22T01:24:00.073Z,0
2017-06-22T01:25:12.891Z,0
2017-06-22T01:26:25.114Z,0
2017-06-22T01:27:37.654Z,0
2017-06-22T01:28:49.867Z,0
2017-06-22T01:30:02.398Z,0
2017-06-22T01:31:14.633Z,0
2017-06-22T01:32:27.161Z,0
2017-06-22T01:33:38.808Z,0
2017-06-22T01:34:51.333Z,0
2017-06-22T01:36:03.901Z,0
2017-06-22T01:37:16.124Z,0
2017-06-22T01:38:28.070Z,0
2017-06-22T01:39:40.583Z,0
2017-06-22T01:40:52.484Z,0
2017-06-22T01:42:05.005Z,0
2017-06-22T01:43:17.547Z,0
2017-06-22T01:44:29.772Z,0
2017-06-22T01:45:42.288Z,0
2017-06-22T01:46:54.517Z,0
2017-06-22T01:48:07.060Z,0
2017-06-22T01:49:19.303Z,0
2017-06-22T01:50:31.528Z,0
2017-06-22T01:51:44.354Z,0
2017-06-22T01:52:56.897Z,0
2017-06-22T01:54:08.831Z,0
2017-06-22T01:55:21.357Z,0
2017-06-22T01:56:33.876Z,4
2017-06-22T01:57:46.379Z,4
2017-06-22T01:58:58.926Z,4
2017-06-22T02:00:11.461Z,4
2017-06-22T02:01:24.018Z,0
2017-06-22T02:02:36.580Z,4
2017-06-22T02:03:49.106Z,4
2017-06-22T02:05:01.627Z,8
2017-06-22T02:06:14.140Z,4
2017-06-22T02:07:26.648Z,8
2017-06-22T02:08:38.889Z,8
2017-06-22T02:09:51.140Z,8
2017-06-22T02:11:03.674Z,12
2017-06-22T02:12:16.212Z,12
2017-06-22T02:13:28.753Z,12
2017-06-22T02:14:40.997Z,16
2017-06-22T02:15:53.559Z,20
2017-06-22T02:17:05.486Z,24
2017-06-22T02:18:17.982Z,24
2017-06-22T02:19:30.523Z,28
2017-06-22T02:20:42.777Z,28
2017-06-22T02:21:55.312Z,36
2017-06-22T02:23:07.847Z,40
2017-06-22T02:24:20.332Z,44
2017-06-22T02:25:32.835Z,48
2017-06-22T02:26:45.032Z,56
2017-06-22T02:27:57.575Z,60
2017-06-22T02:29:10.088Z,68
2017-06-22T02:30:22.647Z,76
2017-06-22T02:31:35.212Z,84
2017-06-22T02:32:47.125Z,92
2017-06-22T02:33:59.634Z,104
2017-06-22T02:35:12.175Z,112
2017-06-22T02:36:24.674Z,124
2017-06-22T02:37:36.950Z,140
2017-06-22T02:38:48.884Z,156
2017-06-22T02:40:01.410Z,176
2017-06-22T02:41:13.959Z,196
2017-06-22T02:42:25.576Z,216
2017-06-22T02:43:38.117Z,236
2017-06-22T02:44:50.642Z,256
2017-06-22T02:46:03.414Z,268
2017-06-22T02:47:15.940Z,288
2017-06-22T02:48:28.483Z,304
2017-06-22T02:49:40.705Z,316
2017-06-22T02:50:53.253Z,332
2017-06-22T02:52:05.789Z,348
2017-06-22T02:53:18.334Z,364
2017-06-22T02:54:30.866Z,384
2017-06-22T02:55:43.380Z,404
2017-06-22T02:56:55.607Z,424
2017-06-22T02:58:07.850Z,440
2017-06-22T02:59:20.394Z,456
2017-06-22T03:00:32.614Z,476
2017-06-22T03:01:44.528Z,500
2017-06-22T03:02:57.073Z,528
2017-06-22T03:04:09.328Z,552
2017-06-22T03:05:21.852Z,580
2017-06-22T03:06:34.087Z,608
2017-06-22T03:07:46.932Z,632
2017-06-22T03:08:59.437Z,664
2017-06-22T03:10:11.986Z,692
2017-06-22T03:11:24.520Z,720
2017-06-22T03:12:36.744Z,748
2017-06-22T03:13:49.272Z,784
2017-06-22T03:15:01.789Z,824
2017-06-22T03:16:13.990Z,860
2017-06-22T03:17:26.550Z,896
2017-06-22T03:18:39.355Z,936
2017-06-22T03:19:51.302Z,964
2017-06-22T03:21:03.819Z,996
2017-06-22T03:22:16.341Z,1032
2017-06-22T03:23:28.869Z,1072
2017-06-22T03:24:41.383Z,1112
2017-06-22T03:25:53.903Z,1152
2017-06-22T03:27:06.409Z,1192
2017-06-22T03:28:18.945Z,1232
2017-06-22T03:29:31.145Z,1284
2017-06-22T03:30:43.408Z,1340
2017-06-22T03:31:55.958Z,1404
2017-06-22T03:33:08.457Z,1484
2017-06-22T03:34:20.978Z,1572
2017-06-22T03:35:33.206Z,1676
2017-06-22T03:36:45.745Z,1792
2017-06-22T03:37:58.266Z,1912
2017-06-22T03:39:10.814Z,2032
2017-06-22T03:40:23.354Z,2140
2017-06-22T03:41:35.577Z,2240
2017-06-22T03:42:47.800Z,2340
2017-06-22T03:44:00.317Z,2428
2017-06-22T03:45:12.863Z,2468
2017-06-22T03:46:25.401Z,2488
2017-06-22T03:47:37.322Z,2484
2017-06-22T03:48:49.552Z,2460
2017-06-22T03:50:02.064Z,2468
2017-06-22T03:51:14.867Z,2508
2017-06-22T03:52:27.363Z,2548
2017-06-22T03:53:39.887Z,2572
2017-06-22T03:54:52.447Z,2592
2017-06-22T03:56:04.986Z,2632
2017-06-22T03:57:17.499Z,2680
2017-06-22T03:58:30.036Z,2724
2017-06-22T03:59:42.267Z,2772
2017-06-22T04:00:54.806Z,2824
2017-06-22T04:02:07.259Z,2884
2017-06-22T04:03:19.830Z,2924
2017-06-22T04:04:31.726Z,2952
2017-06-22T04:05:44.013Z,2988
2017-06-22T04:06:56.539Z,3008
2017-06-22T04:08:09.085Z,3020
2017-06-22T04:09:21.609Z,3040
2017-06-22T04:10:34.147Z,3064
2017-06-22T04:11:46.397Z,3096
2017-06-22T04:12:58.911Z,3148
2017-06-22T04:14:11.440Z,3196
2017-06-22T04:15:23.953Z,3240
2017-06-22T04:16:35.884Z,3284
2017-06-22T04:17:48.419Z,3332
2017-06-22T04:19:00.970Z,3380
2017-06-22T04:20:13.219Z,3432
2017-06-22T04:21:25.740Z,3476
2017-06-22T04:22:38.269Z,3516
2017-06-22T04:23:49.903Z,3556
2017-06-22T04:25:02.157Z,3592
2017-06-22T04:26:14.695Z,3628
2017-06-22T04:27:26.897Z,3664
2017-06-22T04:28:38.840Z,3700
2017-06-22T04:29:51.065Z,3736
2017-06-22T04:31:03.612Z,3772
2017-06-22T04:32:16.158Z,3808
2017-06-22T04:33:28.695Z,3852
2017-06-22T04:34:41.148Z,3904
2017-06-22T04:35:53.412Z,3948
2017-06-22T04:37:05.916Z,4000
2017-06-22T04:38:18.450Z,4044
2017-06-22T04:39:30.679Z,4092
2017-06-22T04:40:43.199Z,4148
2017-06-22T04:41:55.413Z,4192
2017-06-22T04:43:07.944Z,4228
2017-06-22T04:44:20.484Z,4260
2017-06-22T04:45:33.282Z,4288
2017-06-22T04:46:45.508Z,4300
2017-06-22T04:47:58.029Z,4320
2017-06-22T04:49:10.577Z,4328
2017-06-22T04:50:23.125Z,4360
2017-06-22T04:51:35.390Z,4376
2017-06-22T04:52:47.602Z,4404
2017-06-22T04:54:00.151Z,4432
2017-06-22T04:55:11.797Z,4460
2017-06-22T04:56:24.350Z,4532
2017-06-22T04:57:36.593Z,4592
2017-06-22T04:58:49.117Z,4696
2017-06-22T05:00:01.356Z,4724
2017-06-22T05:01:13.910Z,4744
2017-06-22T05:02:26.430Z,4800
2017-06-22T05:03:38.950Z,4884
2017-06-22T05:04:50.868Z,4912
2017-06-22T05:06:03.364Z,5020
2017-06-22T05:07:15.904Z,6444
2017-06-22T05:08:28.435Z,7832
2017-06-22T05:09:40.953Z,10464
2017-06-22T05:10:53.194Z,11044
2017-06-22T05:12:05.426Z,9972
2017-06-22T05:13:17.965Z,13168
2017-06-22T05:14:29.914Z,14312
2017-06-22T05:15:42.456Z,11180
2017-06-22T05:16:55.002Z,12260
2017-06-22T05:18:08.644Z,14200
2017-06-22T05:19:21.171Z,15612
2017-06-22T05:20:33.414Z,19040
2017-06-22T05:21:45.935Z,21920
2017-06-22T05:22:58.153Z,23328
2017-06-22T05:24:10.680Z,20256
2017-06-22T05:25:23.177Z,14984
2017-06-22T05:26:34.794Z,29024
2017-06-22T05:27:47.321Z,46656
2017-06-22T05:28:59.565Z,43008
2017-06-22T05:30:12.100Z,33120
2017-06-22T05:31:24.623Z,30560
2017-06-22T05:32:37.177Z,37024
2017-06-22T05:33:49.098Z,26912
2017-06-22T05:35:01.646Z,15672
2017-06-22T05:36:14.169Z,9068
2017-06-22T05:37:26.714Z,10092
2017-06-22T05:38:39.257Z,13540
2017-06-22T05:39:52.024Z,14136
2017-06-22T05:41:04.273Z,21856
2017-06-22T05:42:16.820Z,13772
2017-06-22T05:43:29.364Z,7256
2017-06-22T05:44:41.586Z,7768
2017-06-22T05:45:54.145Z,7632
2017-06-22T05:47:06.079Z,7364
2017-06-22T05:48:18.597Z,7360
2017-06-22T05:49:30.820Z,7372
2017-06-22T05:50:43.383Z,7484
2017-06-22T05:51:55.611Z,7860
2017-06-22T05:53:08.130Z,8608
2017-06-22T05:54:20.654Z,8752
2017-06-22T05:55:32.896Z,8368
2017-06-22T05:56:45.420Z,7504
2017-06-22T05:57:57.342Z,7516
2017-06-22T05:59:09.602Z,7628
2017-06-22T06:00:22.173Z,8312
2017-06-22T06:01:34.676Z,8788
2017-06-22T06:02:47.177Z,8264
2017-06-22T06:03:59.698Z,10140
2017-06-22T06:05:12.242Z,11068
2017-06-22T06:06:24.813Z,10048
2017-06-22T06:07:37.055Z,10912
2017-06-22T06:08:49.579Z,12064
2017-06-22T06:10:02.105Z,17648
2017-06-22T06:11:14.346Z,18112
2017-06-22T06:12:26.910Z,23136
2017-06-22T06:13:39.435Z,17760
2017-06-22T06:14:51.639Z,14868
2017-06-22T06:16:04.181Z,14460
2017-06-22T06:17:16.727Z,12400
2017-06-22T06:18:29.523Z,14788
2017-06-22T06:19:42.044Z,23488
2017-06-22T06:20:54.589Z,52512
2017-06-22T06:22:06.810Z,54336
2017-06-22T06:23:19.356Z,62944
2017-06-22T06:24:31.926Z,58432
2017-06-22T06:25:44.472Z,64320
2017-06-22T06:26:56.692Z,45984
2017-06-22T06:28:08.957Z,59168
2017-06-22T06:29:21.524Z,41760
2017-06-22T06:30:33.461Z,36448
2017-06-22T06:31:45.998Z,52480
2017-06-22T06:32:58.523Z,55040
2017-06-22T06:34:11.046Z,58080
2017-06-22T06:35:23.561Z,31840
2017-06-22T06:36:36.112Z,51456
2017-06-22T06:37:48.630Z,64128
2017-06-22T06:39:00.866Z,59168
2017-06-22T06:40:13.101Z,56544
2017-06-22T06:41:25.644Z,54912
2017-06-22T06:42:38.190Z,55072
2017-06-22T06:43:50.438Z,56320
2017-06-22T06:45:02.977Z,57888
2017-06-22T06:46:15.233Z,56864
2017-06-22T06:47:27.470Z,44576
2017-06-22T06:48:40.017Z,44960
2017-06-22T06:49:52.558Z,41120
2017-06-22T06:51:05.083Z,36448
2017-06-22T06:52:17.304Z,36800
2017-06-22T06:53:29.528Z,42560
2017-06-22T06:54:42.096Z,33568
2017-06-22T06:55:54.317Z,28032
2017-06-22T06:57:06.570Z,28416
2017-06-22T06:58:19.109Z,36096
2017-06-22T06:59:31.625Z,41504
2017-06-22T07:00:43.878Z,62112
2017-06-22T07:01:56.124Z,63616
2017-06-22T07:03:08.069Z,68096
2017-06-22T07:04:20.015Z,61344
2017-06-22T07:05:32.551Z,65760
2017-06-22T07:06:44.808Z,55264
2017-06-22T07:07:57.355Z,36768
2017-06-22T07:09:09.614Z,35616
2017-06-22T07:10:22.172Z,34208
2017-06-22T07:11:34.742Z,34400
2017-06-22T07:12:47.009Z,32864
2017-06-22T07:13:59.277Z,38208
2017-06-22T07:15:11.522Z,39712
2017-06-22T07:16:24.073Z,50304
2017-06-22T07:17:36.899Z,55424
2017-06-22T07:18:48.839Z,56640
2017-06-22T07:20:01.085Z,50944
2017-06-22T07:21:13.350Z,43552
2017-06-22T07:22:25.280Z,47648
2017-06-22T07:23:37.829Z,42080
2017-06-22T07:24:50.073Z,33248
2017-06-22T07:26:02.039Z,36384
2017-06-22T07:27:14.278Z,40416
2017-06-22T07:28:26.209Z,48832
2017-06-22T07:29:38.778Z,39872
2017-06-22T07:30:51.301Z,44896
2017-06-22T07:32:03.572Z,49600
2017-06-22T07:33:16.119Z,35744
2017-06-22T07:34:28.689Z,23104
2017-06-22T07:35:41.213Z,21632
2017-06-22T07:36:53.781Z,23040
2017-06-22T07:38:06.024Z,24928
2017-06-22T07:39:18.813Z,26240
2017-06-22T07:40:31.066Z,26208
2017-06-22T07:41:43.011Z,27008
2017-06-22T07:42:55.561Z,26848
2017-06-22T07:44:07.503Z,30240
2017-06-22T07:45:19.724Z,32736
2017-06-22T07:46:31.674Z,52160
2017-06-22T07:47:44.222Z,55392
2017-06-22T07:48:56.487Z,56864
2017-06-22T07:50:08.429Z,55168
2017-06-22T07:51:20.659Z,58656
2017-06-22T07:52:33.225Z,64320
2017-06-22T07:53:45.174Z,48992
2017-06-22T07:54:57.717Z,30624
2017-06-22T07:56:10.262Z,25984
2017-06-22T07:57:22.801Z,24768
2017-06-22T07:58:35.051Z,23840
2017-06-22T07:59:47.285Z,23808
2017-06-22T08:00:58.939Z,21184
2017-06-22T08:02:11.489Z,18848
2017-06-22T08:03:24.039Z,17440
2017-06-22T08:04:36.259Z,17248
2017-06-22T08:05:48.811Z,18432
2017-06-22T08:07:01.377Z,19840
2017-06-22T08:08:13.914Z,20128
2017-06-22T08:09:26.472Z,20608
2017-06-22T08:10:39.013Z,21504
2017-06-22T08:11:51.555Z,22464
2017-06-22T08:13:04.106Z,22432
2017-06-22T08:14:16.347Z,21024
2017-06-22T08:15:28.279Z,19712
2017-06-22T08:16:40.862Z,19680
2017-06-22T08:17:53.112Z,42848
2017-06-22T08:19:05.335Z,50848
2017-06-22T08:20:17.585Z,71136
2017-06-22T08:21:29.823Z,74048
2017-06-22T08:22:42.054Z,80800
2017-06-22T08:23:54.619Z,76288
2017-06-22T08:25:07.143Z,61376
2017-06-22T08:26:19.385Z,77920
2017-06-22T08:27:31.932Z,74240
2017-06-22T08:28:44.160Z,59648
2017-06-22T08:29:56.398Z,54528
2017-06-22T08:31:08.944Z,59232
2017-06-22T08:32:21.185Z,66944
2017-06-22T08:33:33.436Z,62144
2017-06-22T08:34:45.082Z,72000
2017-06-22T08:35:57.332Z,69920
2017-06-22T08:37:09.874Z,69504
2017-06-22T08:38:22.137Z,66464
2017-06-22T08:39:34.670Z,61120
2017-06-22T08:40:47.242Z,62592
2017-06-22T08:41:59.786Z,67104
2017-06-22T08:43:12.049Z,53440
2017-06-22T08:44:23.679Z,46144
2017-06-22T08:45:35.645Z,61632
2017-06-22T08:46:47.894Z,50048
2017-06-22T08:48:00.440Z,62592
2017-06-22T08:49:12.715Z,54272
2017-06-22T08:50:24.982Z,70464
2017-06-22T08:51:37.519Z,78880
2017-06-22T08:52:50.077Z,79968
2017-06-22T08:54:02.620Z,79872
2017-06-22T08:55:14.562Z,60864
2017-06-22T08:56:26.801Z,81696
2017-06-22T08:57:39.330Z,75200
2017-06-22T08:58:51.293Z,71104
2017-06-22T09:00:03.551Z,78016
2017-06-22T09:01:15.798Z,80096
2017-06-22T09:02:28.363Z,82336
2017-06-22T09:03:40.885Z,56704
2017-06-22T09:04:53.134Z,80000
2017-06-22T09:06:05.383Z,82752
2017-06-22T09:07:17.968Z,79488
2017-06-22T09:08:29.921Z,89216
2017-06-22T09:09:42.167Z,85376
2017-06-22T09:10:54.737Z,81344
2017-06-22T09:12:07.009Z,82976
2017-06-22T09:13:18.981Z,80640
2017-06-22T09:14:31.202Z,78944
2017-06-22T09:15:43.170Z,85344
2017-06-22T09:16:55.115Z,82592
2017-06-22T09:18:06.778Z,76128
2017-06-22T09:19:19.049Z,71936
2017-06-22T09:20:31.294Z,65056
2017-06-22T09:21:43.255Z,64544
2017-06-22T09:22:55.526Z,64416
2017-06-22T09:24:08.094Z,65600
2017-06-22T09:25:20.366Z,63840
2017-06-22T09:26:32.631Z,65120
2017-06-22T09:27:44.853Z,68128
2017-06-22T09:28:57.399Z,65632
2017-06-22T09:30:09.970Z,69984
2017-06-22T09:31:21.916Z,76544
2017-06-22T09:32:34.137Z,74880
2017-06-22T09:33:46.685Z,65696
2017-06-22T09:34:59.232Z,63744
2017-06-22T09:36:11.802Z,63104
2017-06-22T09:37:23.480Z,64736
2017-06-22T09:38:35.445Z,68992
2017-06-22T09:39:47.715Z,72032
2017-06-22T09:41:00.287Z,65824
2017-06-22T09:42:11.984Z,73056
2017-06-22T09:43:24.545Z,72416
2017-06-22T09:44:36.796Z,72480
2017-06-22T09:45:48.717Z,75616
2017-06-22T09:47:01.266Z,73120
2017-06-22T09:48:13.512Z,66976
2017-06-22T09:49:25.801Z,67168
2017-06-22T09:50:38.354Z,79264
2017-06-22T09:51:50.590Z,81056
2017-06-22T09:53:03.147Z,71392
2017-06-22T09:54:15.706Z,68864
2017-06-22T09:55:27.959Z,74048
2017-06-22T09:56:40.233Z,73088
2017-06-22T09:57:52.497Z,73696
2017-06-22T09:59:05.067Z,68384
2017-06-22T10:00:16.751Z,79520
2017-06-22T10:01:29.295Z,76000
2017-06-22T10:02:41.563Z,78080
2017-06-22T10:03:53.799Z,71648
2017-06-22T10:05:06.055Z,66496
2017-06-22T10:06:17.723Z,64000
2017-06-22T10:07:30.264Z,62432
2017-06-22T10:08:42.840Z,61824
2017-06-22T10:09:55.389Z,62112
2017-06-22T10:11:07.352Z,53600
2017-06-22T10:12:19.608Z,61280
2017-06-22T10:13:31.240Z,67328
2017-06-22T10:14:43.511Z,66048
2017-06-22T10:15:56.069Z,68896
2017-06-22T10:17:08.340Z,71360
2017-06-22T10:18:20.611Z,77120
2017-06-22T10:19:32.595Z,80864
2017-06-22T10:20:45.152Z,84128
2017-06-22T10:21:57.728Z,80992
2017-06-22T10:23:10.011Z,80480
2017-06-22T10:24:22.264Z,82528
2017-06-22T10:25:34.232Z,80000
2017-06-22T10:26:46.208Z,78336
2017-06-22T10:27:58.775Z,71904
2017-06-22T10:29:11.324Z,69760
2017-06-22T10:30:23.293Z,68000
2017-06-22T10:31:35.540Z,67744
2017-06-22T10:32:48.133Z,68512
2017-06-22T10:34:00.382Z,68064
2017-06-22T10:35:12.927Z,70112
2017-06-22T10:36:25.197Z,71392
2017-06-22T10:37:37.170Z,70016
2017-06-22T10:38:49.433Z,66848
2017-06-22T10:40:01.684Z,64672
2017-06-22T10:41:13.961Z,63072
2017-06-22T10:42:26.542Z,59520
2017-06-22T10:43:39.116Z,59776
2017-06-22T10:44:51.670Z,57056
2017-06-22T10:46:03.941Z,57280
2017-06-22T10:47:15.584Z,55968
2017-06-22T10:48:28.154Z,52640
2017-06-22T10:49:40.398Z,51520
2017-06-22T10:50:52.968Z,50976
2017-06-22T10:52:05.521Z,48928
2017-06-22T10:53:18.067Z,46976
2017-06-22T10:54:30.309Z,45024
2017-06-22T10:55:42.880Z,43520
2017-06-22T10:56:55.425Z,42048
2017-06-22T10:58:07.350Z,40224
2017-06-22T10:59:19.622Z,38080
2017-06-22T11:00:32.186Z,35616
2017-06-22T11:01:44.435Z,33600
2017-06-22T11:02:56.708Z,31840
2017-06-22T11:04:09.254Z,30176
2017-06-22T11:05:21.195Z,28544
2017-06-22T11:06:33.801Z,27360
2017-06-22T11:07:45.765Z,26304
2017-06-22T11:08:58.302Z,25376
2017-06-22T11:10:10.281Z,24352
2017-06-22T11:11:22.855Z,23264
2017-06-22T11:12:35.098Z,22080
2017-06-22T11:13:47.664Z,20992
2017-06-22T11:15:00.215Z,19904
2017-06-22T11:16:12.786Z,18752
2017-06-22T11:17:25.324Z,17600
2017-06-22T11:18:37.581Z,16416
2017-06-22T11:19:49.848Z,15460
2017-06-22T11:21:02.075Z,14552
2017-06-22T11:22:14.295Z,13668
2017-06-22T11:23:26.554Z,12824
2017-06-22T11:24:39.136Z,12084
2017-06-22T11:25:51.388Z,11468
2017-06-22T11:27:03.626Z,10972
2017-06-22T11:28:15.848Z,10512
2017-06-22T11:29:28.084Z,10088
2017-06-22T11:30:40.620Z,9920
2017-06-22T11:31:53.160Z,9852
2017-06-22T11:33:05.424Z,9728
2017-06-22T11:34:17.695Z,9504
2017-06-22T11:35:29.623Z,9244
2017-06-22T11:36:41.870Z,9020
2017-06-22T11:37:54.091Z,8368
2017-06-22T11:39:05.437Z,7556
2017-06-22T11:40:17.997Z,7004
2017-06-22T11:41:29.927Z,6748
2017-06-22T11:42:42.492Z,6476
2017-06-22T11:43:55.051Z,6228
2017-06-22T11:45:07.317Z,6028
2017-06-22T11:46:19.562Z,5788
2017-06-22T11:47:32.148Z,5448
2017-06-22T11:48:44.102Z,5196
2017-06-22T11:49:56.049Z,4992
2017-06-22T11:51:08.589Z,4820
2017-06-22T11:52:20.559Z,4884
2017-06-22T11:53:32.809Z,5192
2017-06-22T11:54:45.365Z,5400
2017-06-22T11:55:57.626Z,5400
2017-06-22T11:57:10.171Z,5380
2017-06-22T11:58:22.095Z,5432
2017-06-22T11:59:34.624Z,5144
2017-06-22T12:00:46.239Z,4788
2017-06-22T12:01:58.155Z,4156
2017-06-22T12:03:10.381Z,3692
2017-06-22T12:04:22.040Z,3648
2017-06-22T12:05:34.594Z,3656
2017-06-22T12:06:47.117Z,3432
2017-06-22T12:07:59.381Z,3208
2017-06-22T12:09:11.330Z,3072
2017-06-22T12:10:23.620Z,2884
2017-06-22T12:11:35.869Z,2648
2017-06-22T12:12:48.415Z,2564
2017-06-22T12:14:00.358Z,2552
2017-06-22T12:15:12.289Z,2528
2017-06-22T12:16:24.233Z,2464
2017-06-22T12:17:36.457Z,2340
2017-06-22T12:18:48.717Z,2228
2017-06-22T12:20:00.963Z,2408
2017-06-22T12:21:13.511Z,2692
2017-06-22T12:22:25.766Z,2664
2017-06-22T12:23:37.410Z,2472
2017-06-22T12:24:49.628Z,2256
2017-06-22T12:26:02.149Z,2168
2017-06-22T12:27:14.670Z,2120
2017-06-22T12:28:27.212Z,2056
2017-06-22T12:29:39.137Z,1816
2017-06-22T12:30:51.376Z,1696
2017-06-22T12:32:03.928Z,1676
2017-06-22T12:33:16.449Z,1664
2017-06-22T12:34:28.670Z,1652
2017-06-22T12:35:40.916Z,1628
2017-06-22T12:36:53.137Z,1396
2017-06-22T12:38:05.384Z,948
2017-06-22T12:39:17.971Z,740
2017-06-22T12:40:29.907Z,576
2017-06-22T12:41:42.489Z,308
2017-06-22T12:42:54.741Z,220
2017-06-22T12:44:06.967Z,188
2017-06-22T12:45:19.505Z,200
2017-06-22T12:46:31.758Z,264
2017-06-22T12:47:44.325Z,416
2017-06-22T12:48:56.825Z,708
2017-06-22T12:50:09.103Z,928
2017-06-22T12:51:21.372Z,1040
2017-06-22T12:52:33.909Z,1056
2017-06-22T12:53:46.433Z,944
2017-06-22T12:54:58.679Z,792
2017-06-22T12:56:11.197Z,744
2017-06-22T12:57:23.749Z,764
2017-06-22T12:58:36.265Z,792
2017-06-22T12:59:48.553Z,788
2017-06-22T13:01:01.086Z,748
2017-06-22T13:02:13.602Z,736
2017-06-22T13:03:26.125Z,784
2017-06-22T13:04:38.668Z,848
2017-06-22T13:05:50.618Z,896
2017-06-22T13:07:03.185Z,940
2017-06-22T13:08:15.715Z,964
2017-06-22T13:09:27.944Z,1012
2017-06-22T13:10:40.193Z,1076
2017-06-22T13:11:52.719Z,1120
2017-06-22T13:13:04.657Z,1164
2017-06-22T13:14:16.590Z,1184
2017-06-22T13:15:29.128Z,1192
2017-06-22T13:16:41.702Z,1196
2017-06-22T13:17:54.226Z,1164
2017-06-22T13:19:06.173Z,1172
2017-06-22T13:20:18.415Z,1228
2017-06-22T13:21:30.614Z,1256
2017-06-22T13:22:43.110Z,1268
2017-06-22T13:23:55.657Z,1276
2017-06-22T13:25:08.178Z,1344
2017-06-22T13:26:20.395Z,1360
2017-06-22T13:27:32.620Z,1480
2017-06-22T13:28:44.864Z,1540
2017-06-22T13:29:56.792Z,1504
2017-06-22T13:31:09.361Z,1496
2017-06-22T13:32:21.894Z,1496
2017-06-22T13:33:34.420Z,1524
2017-06-22T13:34:46.620Z,1596
2017-06-22T13:35:59.162Z,1568
2017-06-22T13:37:11.688Z,1464
2017-06-22T13:38:24.210Z,1496
2017-06-22T13:39:36.126Z,1556
2017-06-22T13:40:48.651Z,1576
2017-06-22T13:42:00.596Z,1572
2017-06-22T13:43:12.564Z,1620
2017-06-22T13:44:24.483Z,1652
2017-06-22T13:45:37.008Z,1668
2017-06-22T13:46:49.252Z,1708
2017-06-22T13:48:01.481Z,1784
2017-06-22T13:49:14.060Z,1904
2017-06-22T13:50:26.283Z,2044
2017-06-22T13:51:38.812Z,2188
2017-06-22T13:52:51.347Z,2360
2017-06-22T13:54:03.879Z,2520
2017-06-22T13:55:16.427Z,2644
2017-06-22T13:56:28.967Z,2744
2017-06-22T13:57:41.517Z,2832
2017-06-22T13:58:53.758Z,2928
2017-06-22T14:00:05.681Z,3020
2017-06-22T14:01:17.929Z,3112
2017-06-22T14:02:30.447Z,3208
2017-06-22T14:03:42.943Z,3320
2017-06-22T14:04:55.441Z,3472
2017-06-22T14:06:07.681Z,3648
2017-06-22T14:07:19.601Z,3864
2017-06-22T14:08:32.129Z,4116
2017-06-22T14:09:44.068Z,4448
2017-06-22T14:10:56.294Z,4904
2017-06-22T14:12:08.518Z,5496
2017-06-22T14:13:20.789Z,6188
2017-06-22T14:14:33.006Z,7016
2017-06-22T14:15:45.207Z,7972
2017-06-22T14:16:57.426Z,8992
2017-06-22T14:18:09.618Z,10104
2017-06-22T14:19:21.858Z,11268
2017-06-22T14:20:34.389Z,12440
2017-06-22T14:21:46.635Z,13660
2017-06-22T14:22:58.882Z,14928
2017-06-22T14:24:11.128Z,16200
2017-06-22T14:25:23.369Z,17504
2017-06-22T14:26:35.277Z,18496
2017-06-22T14:27:47.810Z,19136
2017-06-22T14:28:59.715Z,19456
2017-06-22T14:30:12.258Z,19520
2017-06-22T14:31:24.774Z,19424
2017-06-22T14:32:36.970Z,19104
2017-06-22T14:33:49.220Z,18624
2017-06-22T14:35:01.764Z,18048
2017-06-22T14:36:14.284Z,17632
2017-06-22T14:37:26.825Z,17248
2017-06-22T14:38:39.371Z,16792
2017-06-22T14:39:51.575Z,16496
2017-06-22T14:41:04.117Z,16304
2017-06-22T14:42:16.659Z,16272
2017-06-22T14:43:29.225Z,16332
2017-06-22T14:44:41.183Z,16416
2017-06-22T14:45:53.442Z,16484
2017-06-22T14:47:05.675Z,16468
2017-06-22T14:48:17.918Z,16424
2017-06-22T14:49:30.440Z,16424
2017-06-22T14:50:42.981Z,16376
2017-06-22T14:51:55.205Z,16304
2017-06-22T14:53:07.747Z,16232
2017-06-22T14:54:19.715Z,16192
2017-06-22T14:55:32.287Z,16232
2017-06-22T14:56:44.518Z,16308
2017-06-22T14:57:57.066Z,16340
2017-06-22T14:59:09.016Z,16232
2017-06-22T15:00:21.554Z,15960
2017-06-22T15:01:34.073Z,15544
2017-06-22T15:02:46.319Z,15036
2017-06-22T15:03:58.868Z,14484
2017-06-22T15:05:11.140Z,13932
2017-06-22T15:06:23.399Z,13404
2017-06-22T15:07:35.331Z,12936
2017-06-22T15:08:47.577Z,12580
2017-06-22T15:10:00.091Z,12280
2017-06-22T15:11:12.644Z,11964
2017-06-22T15:12:25.186Z,11660
2017-06-22T15:13:37.753Z,11420
2017-06-22T15:14:50.275Z,11288
2017-06-22T15:16:02.474Z,11180
2017-06-22T15:17:15.024Z,10996
2017-06-22T15:18:27.290Z,10724
2017-06-22T15:19:39.836Z,10428
2017-06-22T15:20:52.041Z,10132
2017-06-22T15:22:04.581Z,9836
2017-06-22T15:23:17.100Z,9576
2017-06-22T15:24:29.637Z,9368
2017-06-22T15:25:41.894Z,9260
2017-06-22T15:26:54.442Z,9244
2017-06-22T15:28:06.964Z,9264
2017-06-22T15:29:19.478Z,9236
2017-06-22T15:30:31.750Z,9100
2017-06-22T15:31:44.291Z,8860
2017-06-22T15:32:56.818Z,8564
2017-06-22T15:34:09.337Z,8308
2017-06-22T15:35:21.840Z,8128
2017-06-22T15:36:33.786Z,8016
2017-06-22T15:37:46.025Z,7956
2017-06-22T15:38:58.538Z,7936
2017-06-22T15:40:11.091Z,7948
2017-06-22T15:41:23.055Z,7952
2017-06-22T15:42:35.559Z,7936
2017-06-22T15:43:47.484Z,7932
2017-06-22T15:45:00.056Z,7936
2017-06-22T15:46:12.300Z,7968
2017-06-22T15:47:24.838Z,8008
2017-06-22T15:48:37.063Z,8076
2017-06-22T15:49:49.602Z,8188
2017-06-22T15:51:02.151Z,8380
2017-06-22T15:52:14.719Z,8656
2017-06-22T15:53:27.264Z,9024
2017-06-22T15:54:39.212Z,9420
2017-06-22T15:55:51.143Z,9828
2017-06-22T15:57:03.705Z,10280
2017-06-22T15:58:16.185Z,10724
2017-06-22T15:59:28.126Z,11152
2017-06-22T16:00:40.676Z,11608
2017-06-22T16:01:53.196Z,12080
2017-06-22T16:03:05.442Z,12476
2017-06-22T16:04:17.991Z,12764
2017-06-22T16:05:30.231Z,12908